SAS105 ESSA-EFHK
Flight info
| Callsign | SAS105 |
|---|---|
| Flight time | 0h 36m |
| Altitude | 31000 |
| Route | TOVRI N851 RIKUM DCT RIRIP Y364 LAKUT |
| Aircraft | B736/M-SDE2E3FGHIRWXY/LB1 |
Departure
| Time | 2026-04-24 07:09 |
|---|---|
| Airport | Stockholm-Arlanda Airport (ESSA) |
Arrival
| Time | 2026-04-24 07:46 |
|---|---|
| Airport | Helsinki Vantaa Airport (EFHK) |
| Time | Latitude | Longitude | Altitude | Speed | Heading |
|---|---|---|---|---|---|
| 2026-04-24 06:41 | 59.65242 | 17.92998 | 111 ft | 0 kts | 70° |
| 2026-04-24 06:55 | 59.65238 | 17.92974 | 111 ft | 5 kts | 69° |
| 2026-04-24 06:55 | 59.65228 | 17.92921 | 109 ft | 3 kts | 68° |
| 2026-04-24 06:55 | 59.65221 | 17.92887 | 109 ft | 3 kts | 45° |
| 2026-04-24 06:55 | 59.65205 | 17.92884 | 108 ft | 3 kts | 313° |
| 2026-04-24 06:56 | 59.65199 | 17.92896 | 110 ft | 0 kts | 310° |
| 2026-04-24 06:58 | 59.65200 | 17.92896 | 110 ft | 0 kts | 310° |
| 2026-04-24 06:58 | 59.65210 | 17.92863 | 109 ft | 0 kts | 295° |
| 2026-04-24 06:58 | 59.65211 | 17.92857 | 108 ft | 1 kts | 295° |
| 2026-04-24 06:59 | 59.65213 | 17.92850 | 108 ft | 1 kts | 295° |
| 2026-04-24 07:01 | 59.65215 | 17.92844 | 109 ft | 1 kts | 296° |
| 2026-04-24 07:01 | 59.65222 | 17.92810 | 110 ft | 4 kts | 291° |
| 2026-04-24 07:01 | 59.65233 | 17.92743 | 109 ft | 6 kts | 285° |
| 2026-04-24 07:01 | 59.65250 | 17.92645 | 111 ft | 9 kts | 290° |
| 2026-04-24 07:02 | 59.65273 | 17.92528 | 110 ft | 9 kts | 292° |
| 2026-04-24 07:02 | 59.65292 | 17.92407 | 109 ft | 10 kts | 286° |
| 2026-04-24 07:02 | 59.65323 | 17.92273 | 103 ft | 12 kts | 326° |
| 2026-04-24 07:02 | 59.65404 | 17.92288 | 103 ft | 12 kts | 19° |
| 2026-04-24 07:03 | 59.65461 | 17.92402 | 104 ft | 11 kts | 43° |
| 2026-04-24 07:03 | 59.65511 | 17.92519 | 104 ft | 11 kts | 62° |
| 2026-04-24 07:03 | 59.65535 | 17.92663 | 104 ft | 11 kts | 75° |
| 2026-04-24 07:03 | 59.65554 | 17.92805 | 107 ft | 11 kts | 76° |
| 2026-04-24 07:04 | 59.65564 | 17.92885 | 108 ft | 1 kts | 75° |
| 2026-04-24 07:04 | 59.65564 | 17.92886 | 108 ft | 0 kts | 75° |
| 2026-04-24 07:05 | 59.65565 | 17.92887 | 108 ft | 1 kts | 75° |
| 2026-04-24 07:05 | 59.65570 | 17.92922 | 108 ft | 5 kts | 73° |
| 2026-04-24 07:05 | 59.65585 | 17.93032 | 108 ft | 11 kts | 76° |
| 2026-04-24 07:05 | 59.65607 | 17.93211 | 108 ft | 16 kts | 73° |
| 2026-04-24 07:06 | 59.65684 | 17.93409 | 108 ft | 20 kts | 45° |
| 2026-04-24 07:06 | 59.65781 | 17.93606 | 114 ft | 20 kts | 46° |
| 2026-04-24 07:06 | 59.65866 | 17.93812 | 115 ft | 19 kts | 70° |
| 2026-04-24 07:06 | 59.65872 | 17.93859 | 116 ft | 0 kts | 77° |
| 2026-04-24 07:08 | 59.65874 | 17.93874 | 117 ft | 5 kts | 76° |
| 2026-04-24 07:08 | 59.65929 | 17.94302 | 121 ft | 67 kts | 76° |
| 2026-04-24 07:09 | 59.66097 | 17.95617 | 120 ft | 127 kts | 76° |
| 2026-04-24 07:09 | 59.66368 | 17.97547 | 276 ft | 158 kts | 69° |
| 2026-04-24 07:09 | 59.66649 | 17.99702 | 835 ft | 166 kts | 70° |
| 2026-04-24 07:09 | 59.66816 | 18.01223 | 1153 ft | 176 kts | 71° |
| 2026-04-24 07:10 | 59.67118 | 18.03585 | 1773 ft | 178 kts | 71° |
| 2026-04-24 07:10 | 59.67412 | 18.06139 | 2152 ft | 204 kts | 73° |
| 2026-04-24 07:10 | 59.67734 | 18.09028 | 2524 ft | 223 kts | 73° |
| 2026-04-24 07:10 | 59.68082 | 18.12197 | 2912 ft | 246 kts | 73° |
| 2026-04-24 07:11 | 59.68564 | 18.16641 | 3968 ft | 252 kts | 73° |
| 2026-04-24 07:11 | 59.68813 | 18.18952 | 4530 ft | 256 kts | 73° |
| 2026-04-24 07:11 | 59.69190 | 18.22419 | 5343 ft | 259 kts | 72° |
| 2026-04-24 07:11 | 59.69572 | 18.25936 | 6172 ft | 264 kts | 73° |
| 2026-04-24 07:12 | 59.69961 | 18.29528 | 7028 ft | 267 kts | 73° |
| 2026-04-24 07:12 | 59.70356 | 18.33165 | 7843 ft | 273 kts | 72° |
| 2026-04-24 07:12 | 59.70758 | 18.36877 | 8707 ft | 278 kts | 72° |
| 2026-04-24 07:12 | 59.71257 | 18.40548 | 9600 ft | 279 kts | 62° |
| 2026-04-24 07:13 | 59.72098 | 18.44025 | 10392 ft | 285 kts | 56° |
| 2026-04-24 07:13 | 59.73090 | 18.47631 | 10659 ft | 312 kts | 55° |
| 2026-04-24 07:13 | 59.74189 | 18.51565 | 10891 ft | 339 kts | 55° |
| 2026-04-24 07:13 | 59.75361 | 18.55819 | 11075 ft | 364 kts | 56° |
| 2026-04-24 07:14 | 59.76591 | 18.60394 | 11338 ft | 384 kts | 57° |
| 2026-04-24 07:14 | 59.77846 | 18.65159 | 11900 ft | 393 kts | 57° |
| 2026-04-24 07:14 | 59.79105 | 18.70010 | 12592 ft | 398 kts | 57° |
| 2026-04-24 07:14 | 59.80369 | 18.74914 | 13461 ft | 399 kts | 57° |
| 2026-04-24 07:15 | 59.81644 | 18.79873 | 14035 ft | 406 kts | 57° |
| 2026-04-24 07:15 | 59.82938 | 18.84913 | 14615 ft | 411 kts | 57° |
| 2026-04-24 07:15 | 59.84240 | 18.89998 | 15305 ft | 414 kts | 57° |
| 2026-04-24 07:15 | 59.85552 | 18.95130 | 15980 ft | 417 kts | 57° |
| 2026-04-24 07:16 | 59.86856 | 19.00241 | 16601 ft | 421 kts | 57° |
| 2026-04-24 07:16 | 59.88188 | 19.05469 | 17203 ft | 426 kts | 57° |
| 2026-04-24 07:16 | 59.89531 | 19.10754 | 17801 ft | 430 kts | 57° |
| 2026-04-24 07:16 | 59.90887 | 19.16107 | 18374 ft | 434 kts | 57° |
| 2026-04-24 07:17 | 59.92250 | 19.21499 | 18872 ft | 438 kts | 57° |
| 2026-04-24 07:17 | 59.93625 | 19.26949 | 19393 ft | 442 kts | 57° |
| 2026-04-24 07:17 | 59.95009 | 19.32448 | 19905 ft | 445 kts | 57° |
| 2026-04-24 07:17 | 59.96400 | 19.38001 | 20401 ft | 449 kts | 58° |
| 2026-04-24 07:18 | 59.97582 | 19.43841 | 20851 ft | 461 kts | 67° |
| 2026-04-24 07:18 | 59.98392 | 19.50098 | 21339 ft | 467 kts | 70° |
| 2026-04-24 07:18 | 59.99136 | 19.56454 | 21792 ft | 471 kts | 71° |
| 2026-04-24 07:18 | 59.99869 | 19.62852 | 22230 ft | 474 kts | 71° |
| 2026-04-24 07:19 | 60.00601 | 19.69214 | 22644 ft | 478 kts | 71° |
| 2026-04-24 07:19 | 60.01357 | 19.75706 | 23070 ft | 481 kts | 71° |
| 2026-04-24 07:19 | 60.02127 | 19.82243 | 23488 ft | 484 kts | 71° |
| 2026-04-24 07:19 | 60.02906 | 19.88820 | 23849 ft | 487 kts | 71° |
| 2026-04-24 07:20 | 60.03688 | 19.95412 | 24228 ft | 489 kts | 71° |
| 2026-04-24 07:20 | 60.04473 | 20.02052 | 24606 ft | 491 kts | 71° |
| 2026-04-24 07:20 | 60.05259 | 20.08728 | 24973 ft | 493 kts | 71° |
| 2026-04-24 07:20 | 60.06045 | 20.15430 | 25324 ft | 496 kts | 72° |
| 2026-04-24 07:21 | 60.06830 | 20.22170 | 25664 ft | 498 kts | 72° |
| 2026-04-24 07:21 | 60.07615 | 20.28937 | 25976 ft | 499 kts | 72° |
| 2026-04-24 07:21 | 60.08396 | 20.35714 | 26342 ft | 499 kts | 72° |
| 2026-04-24 07:21 | 60.09169 | 20.42473 | 26811 ft | 496 kts | 72° |
| 2026-04-24 07:22 | 60.09935 | 20.49194 | 27261 ft | 494 kts | 72° |
| 2026-04-24 07:22 | 60.10698 | 20.55912 | 27678 ft | 494 kts | 72° |
| 2026-04-24 07:22 | 60.11458 | 20.62634 | 28098 ft | 493 kts | 72° |
| 2026-04-24 07:22 | 60.12213 | 20.69342 | 28532 ft | 492 kts | 72° |
| 2026-04-24 07:23 | 60.12961 | 20.76025 | 29003 ft | 491 kts | 72° |
| 2026-04-24 07:23 | 60.13697 | 20.82627 | 29475 ft | 490 kts | 72° |
| 2026-04-24 07:23 | 60.14436 | 20.89296 | 29947 ft | 489 kts | 72° |
| 2026-04-24 07:23 | 60.15170 | 20.95949 | 30351 ft | 488 kts | 72° |
| 2026-04-24 07:24 | 60.15902 | 21.02611 | 30735 ft | 487 kts | 73° |
| 2026-04-24 07:24 | 60.16630 | 21.09270 | 30902 ft | 489 kts | 73° |
| 2026-04-24 07:24 | 60.18077 | 21.22616 | 30919 ft | 487 kts | 72° |
| 2026-04-24 07:25 | 60.19503 | 21.35906 | 30924 ft | 486 kts | 72° |
| 2026-04-24 07:25 | 60.20915 | 21.49193 | 30903 ft | 486 kts | 72° |
| 2026-04-24 07:26 | 60.22302 | 21.62410 | 30890 ft | 486 kts | 72° |
| 2026-04-24 07:26 | 60.23684 | 21.75723 | 30889 ft | 486 kts | 72° |
| 2026-04-24 07:27 | 60.25056 | 21.89062 | 30882 ft | 487 kts | 72° |
| 2026-04-24 07:27 | 60.26417 | 22.02435 | 30657 ft | 488 kts | 72° |
| 2026-04-24 07:28 | 60.27092 | 22.09121 | 30387 ft | 486 kts | 72° |
| 2026-04-24 07:28 | 60.27762 | 22.15805 | 30011 ft | 487 kts | 72° |
| 2026-04-24 07:28 | 60.28428 | 22.22538 | 28986 ft | 490 kts | 74° |
| 2026-04-24 07:28 | 60.28631 | 22.29460 | 28005 ft | 502 kts | 88° |
| 2026-04-24 07:29 | 60.28246 | 22.36471 | 27125 ft | 505 kts | 92° |
| 2026-04-24 07:29 | 60.27713 | 22.43473 | 26234 ft | 506 kts | 93° |
| 2026-04-24 07:29 | 60.27189 | 22.50517 | 25360 ft | 510 kts | 92° |
| 2026-04-24 07:29 | 60.26671 | 22.57594 | 24487 ft | 511 kts | 92° |
| 2026-04-24 07:30 | 60.26156 | 22.64631 | 23644 ft | 504 kts | 92° |
| 2026-04-24 07:30 | 60.25631 | 22.71554 | 22732 ft | 496 kts | 92° |
| 2026-04-24 07:30 | 60.25094 | 22.78369 | 21771 ft | 489 kts | 92° |
| 2026-04-24 07:30 | 60.24578 | 22.85078 | 20841 ft | 482 kts | 92° |
| 2026-04-24 07:31 | 60.24070 | 22.91714 | 19977 ft | 476 kts | 91° |
| 2026-04-24 07:31 | 60.23565 | 22.98256 | 19106 ft | 470 kts | 91° |
| 2026-04-24 07:31 | 60.23059 | 23.04724 | 18257 ft | 464 kts | 91° |
| 2026-04-24 07:31 | 60.22557 | 23.11086 | 17300 ft | 457 kts | 92° |
| 2026-04-24 07:32 | 60.22066 | 23.17287 | 16374 ft | 452 kts | 92° |
| 2026-04-24 07:32 | 60.21576 | 23.23487 | 15463 ft | 446 kts | 92° |
| 2026-04-24 07:32 | 60.21096 | 23.29606 | 14580 ft | 440 kts | 92° |
| 2026-04-24 07:32 | 60.20625 | 23.35650 | 13802 ft | 433 kts | 92° |
| 2026-04-24 07:33 | 60.20165 | 23.41567 | 13101 ft | 423 kts | 92° |
| 2026-04-24 07:33 | 60.19719 | 23.47354 | 12349 ft | 413 kts | 92° |
| 2026-04-24 07:33 | 60.19296 | 23.52974 | 11392 ft | 402 kts | 92° |
| 2026-04-24 07:33 | 60.18901 | 23.58500 | 10424 ft | 396 kts | 92° |
| 2026-04-24 07:34 | 60.18536 | 23.63828 | 10094 ft | 373 kts | 92° |
| 2026-04-24 07:34 | 60.18188 | 23.68789 | 9926 ft | 346 kts | 92° |
| 2026-04-24 07:34 | 60.17852 | 23.73414 | 9767 ft | 323 kts | 92° |
| 2026-04-24 07:34 | 60.17527 | 23.77724 | 9622 ft | 302 kts | 92° |
| 2026-04-24 07:35 | 60.17210 | 23.81820 | 9231 ft | 293 kts | 92° |
| 2026-04-24 07:35 | 60.16900 | 23.85862 | 8722 ft | 293 kts | 92° |
| 2026-04-24 07:35 | 60.16592 | 23.89897 | 8361 ft | 289 kts | 92° |
| 2026-04-24 07:35 | 60.16289 | 23.93854 | 7966 ft | 285 kts | 92° |
| 2026-04-24 07:36 | 60.15990 | 23.97786 | 7523 ft | 284 kts | 92° |
| 2026-04-24 07:36 | 60.15699 | 24.01682 | 7124 ft | 280 kts | 92° |
| 2026-04-24 07:36 | 60.15423 | 24.05535 | 6712 ft | 278 kts | 92° |
| 2026-04-24 07:36 | 60.15157 | 24.09363 | 6275 ft | 275 kts | 92° |
| 2026-04-24 07:37 | 60.14897 | 24.13152 | 5832 ft | 273 kts | 92° |
| 2026-04-24 07:37 | 60.14645 | 24.16850 | 5487 ft | 268 kts | 92° |
| 2026-04-24 07:37 | 60.14394 | 24.20533 | 5072 ft | 265 kts | 92° |
| 2026-04-24 07:37 | 60.14141 | 24.24191 | 4661 ft | 264 kts | 92° |
| 2026-04-24 07:38 | 60.13889 | 24.27844 | 4207 ft | 263 kts | 92° |
| 2026-04-24 07:38 | 60.13643 | 24.31460 | 3781 ft | 260 kts | 92° |
| 2026-04-24 07:38 | 60.13397 | 24.35038 | 3430 ft | 258 kts | 92° |
| 2026-04-24 07:38 | 60.13160 | 24.38610 | 3128 ft | 257 kts | 92° |
| 2026-04-24 07:39 | 60.12926 | 24.42176 | 3051 ft | 259 kts | 92° |
| 2026-04-24 07:39 | 60.12689 | 24.45699 | 3005 ft | 249 kts | 92° |
| 2026-04-24 07:39 | 60.12696 | 24.49000 | 3001 ft | 226 kts | 67° |
| 2026-04-24 07:39 | 60.13543 | 24.51399 | 3016 ft | 208 kts | 38° |
| 2026-04-24 07:40 | 60.14561 | 24.53455 | 3030 ft | 206 kts | 45° |
| 2026-04-24 07:40 | 60.15524 | 24.55580 | 3034 ft | 207 kts | 43° |
| 2026-04-24 07:40 | 60.16506 | 24.57695 | 2997 ft | 207 kts | 43° |
| 2026-04-24 07:40 | 60.17468 | 24.59801 | 3018 ft | 208 kts | 43° |
| 2026-04-24 07:41 | 60.18453 | 24.61977 | 3006 ft | 211 kts | 44° |
| 2026-04-24 07:41 | 60.19423 | 24.64134 | 2975 ft | 201 kts | 44° |
| 2026-04-24 07:41 | 60.20323 | 24.66139 | 2995 ft | 187 kts | 43° |
| 2026-04-24 07:41 | 60.21173 | 24.68025 | 2985 ft | 178 kts | 43° |
| 2026-04-24 07:42 | 60.22002 | 24.69855 | 2920 ft | 178 kts | 43° |
| 2026-04-24 07:42 | 60.22859 | 24.71746 | 2648 ft | 187 kts | 43° |
| 2026-04-24 07:42 | 60.23730 | 24.73680 | 2412 ft | 185 kts | 43° |
| 2026-04-24 07:42 | 60.24597 | 24.75592 | 2152 ft | 185 kts | 43° |
| 2026-04-24 07:43 | 60.25440 | 24.77461 | 1878 ft | 174 kts | 43° |
| 2026-04-24 07:43 | 60.26217 | 24.79181 | 1662 ft | 158 kts | 42° |
| 2026-04-24 07:43 | 60.26951 | 24.80801 | 1471 ft | 157 kts | 41° |
| 2026-04-24 07:43 | 60.27681 | 24.82409 | 1236 ft | 153 kts | 42° |
| 2026-04-24 07:44 | 60.28392 | 24.83986 | 1012 ft | 146 kts | 42° |
| 2026-04-24 07:44 | 60.29047 | 24.85426 | 809 ft | 135 kts | 44° |
| 2026-04-24 07:44 | 60.29650 | 24.86796 | 623 ft | 126 kts | 45° |
| 2026-04-24 07:44 | 60.30226 | 24.88077 | 490 ft | 123 kts | 37° |
| 2026-04-24 07:45 | 60.30844 | 24.89329 | 334 ft | 129 kts | 42° |
| 2026-04-24 07:45 | 60.31444 | 24.90665 | 164 ft | 128 kts | 43° |
| 2026-04-24 07:45 | 60.31974 | 24.91844 | 149 ft | 98 kts | 48° |
| 2026-04-24 07:45 | 60.32345 | 24.92695 | 169 ft | 64 kts | 54° |
| 2026-04-24 07:46 | 60.32462 | 24.93295 | 174 ft | 29 kts | 75° |
| 2026-04-24 07:46 | 60.32500 | 24.93594 | 171 ft | 21 kts | 77° |
| 2026-04-24 07:46 | 60.32532 | 24.93872 | 169 ft | 20 kts | 74° |
| 2026-04-24 07:46 | 60.32615 | 24.94091 | 170 ft | 19 kts | 46° |
| 2026-04-24 07:47 | 60.32707 | 24.94286 | 171 ft | 19 kts | 47° |
| 2026-04-24 07:47 | 60.32794 | 24.94477 | 173 ft | 18 kts | 47° |
| 2026-04-24 07:47 | 60.32878 | 24.94664 | 173 ft | 18 kts | 47° |
| 2026-04-24 07:47 | 60.32915 | 24.94868 | 175 ft | 17 kts | 126° |
| 2026-04-24 07:48 | 60.32806 | 24.94969 | 175 ft | 18 kts | 162° |
| 2026-04-24 07:48 | 60.32670 | 24.95059 | 179 ft | 24 kts | 161° |
| 2026-04-24 07:48 | 60.32505 | 24.95167 | 179 ft | 25 kts | 161° |
| 2026-04-24 07:48 | 60.32344 | 24.95275 | 176 ft | 23 kts | 156° |
| 2026-04-24 07:49 | 60.32223 | 24.95484 | 173 ft | 23 kts | 136° |
| 2026-04-24 07:49 | 60.32166 | 24.95590 | 172 ft | 0 kts | 137° |
| 2026-04-24 07:50 | 60.32161 | 24.95600 | 172 ft | 4 kts | 137° |
| 2026-04-24 07:50 | 60.32109 | 24.95692 | 172 ft | 15 kts | 137° |
| 2026-04-24 07:50 | 60.32019 | 24.95861 | 172 ft | 20 kts | 137° |
| 2026-04-24 07:50 | 60.31915 | 24.96055 | 166 ft | 21 kts | 138° |
| 2026-04-24 07:51 | 60.31850 | 24.96294 | 165 ft | 13 kts | 114° |
| 2026-04-24 07:51 | 60.31804 | 24.96387 | 165 ft | 5 kts | 138° |
| 2026-04-24 07:51 | 60.31799 | 24.96396 | 165 ft | 0 kts | 138° |